createdAt,value
2022-12-13T00:02:00.759Z,-0.01
2022-12-13T00:04:29.312Z,-1.01
2022-12-13T00:06:57.841Z,-0.49
2022-12-13T00:09:26.216Z,-0.51
2022-12-13T00:11:55.147Z,0.22
2022-12-13T00:14:23.580Z,-0.43
2022-12-13T00:16:51.967Z,0.12
2022-12-13T00:19:21.786Z,0.70
2022-12-13T00:21:53.006Z,0.50
2022-12-13T00:24:21.426Z,0.89
2022-12-13T00:26:50.437Z,0.73
2022-12-13T00:29:18.957Z,0.68
2022-12-13T00:32:02.650Z,0.10
2022-12-13T00:34:31.208Z,0.48
2022-12-13T00:36:59.708Z,0.44
2022-12-13T00:39:28.636Z,0.37
2022-12-13T00:41:57.762Z,-0.67
2022-12-13T00:44:26.243Z,-0.64
2022-12-13T00:46:55.104Z,-0.59
2022-12-13T00:49:23.791Z,-0.04
2022-12-13T00:51:52.209Z,-0.09
2022-12-13T00:54:21.110Z,-0.16
2022-12-13T00:56:52.301Z,-0.43
2022-12-13T00:59:21.074Z,-0.79
2022-12-13T01:01:51.086Z,-1.05
2022-12-13T01:04:20.140Z,-0.82
2022-12-13T01:06:50.197Z,-0.93
2022-12-13T01:09:20.795Z,-1.14
2022-12-13T01:11:49.402Z,-0.75
2022-12-13T01:14:18.566Z,-0.86
2022-12-13T01:16:47.070Z,-1.29
2022-12-13T01:19:17.162Z,-0.66
2022-12-13T01:21:45.454Z,-1.23
2022-12-13T01:24:14.533Z,-1.18
2022-12-13T01:26:42.901Z,-1.28
2022-12-13T01:29:11.745Z,-1.55
2022-12-13T01:31:42.114Z,-1.79
2022-12-13T01:34:11.592Z,-1.32
2022-12-13T01:36:41.126Z,-0.85
2022-12-13T01:39:14.550Z,-1.41
2022-12-13T01:41:47.591Z,-1.49
2022-12-13T01:44:53.252Z,-1.70
2022-12-13T01:47:46.811Z,-1.41
2022-12-13T01:50:17.954Z,-1.76
2022-12-13T01:52:46.455Z,-0.91
2022-12-13T01:55:14.816Z,-1.18
2022-12-13T01:57:45.697Z,-1.11
2022-12-13T02:00:16.592Z,-1.34
2022-12-13T02:02:45.374Z,-1.10
2022-12-13T02:05:22.274Z,-0.71
2022-12-13T02:07:50.753Z,-0.46
2022-12-13T02:10:19.470Z,-0.12
2022-12-13T02:12:47.900Z,-0.27
2022-12-13T02:15:18.411Z,-0.41
2022-12-13T02:18:08.360Z,-0.46
2022-12-13T02:20:49.099Z,-0.15
2022-12-13T02:23:30.752Z,-0.02
2022-12-13T02:26:11.313Z,-0.35
2022-12-13T02:28:49.357Z,-0.44
2022-12-13T02:31:42.097Z,-0.87
2022-12-13T02:34:18.411Z,-1.28
2022-12-13T02:37:05.909Z,-0.79
2022-12-13T02:39:52.095Z,-0.47
2022-12-13T02:42:48.230Z,-0.92
2022-12-13T02:45:24.439Z,-0.56
2022-12-13T02:47:55.296Z,-0.36
2022-12-13T02:50:23.733Z,-0.28
2022-12-13T02:52:52.144Z,-0.29
2022-12-13T02:55:25.164Z,-0.23
2022-12-13T02:57:55.499Z,-0.03
2022-12-13T03:00:43.359Z,-0.17
2022-12-13T03:03:26.708Z,-0.98
2022-12-13T03:06:36.428Z,-1.23
2022-12-13T03:09:26.537Z,-1.12
2022-12-13T03:12:31.929Z,-0.96
2022-12-13T03:15:20.555Z,-0.52
2022-12-13T03:18:04.143Z,-0.97
2022-12-13T03:20:32.531Z,-1.66
2022-12-13T03:23:01.579Z,-2.08
2022-12-13T03:25:32.793Z,-1.95
2022-12-13T03:28:02.431Z,-2.34
2022-12-13T03:30:34.242Z,-2.46
2022-12-13T03:33:02.813Z,-1.64
2022-12-13T03:35:34.160Z,-1.61
2022-12-13T03:38:03.437Z,-2.34
2022-12-13T03:40:31.855Z,-2.08
2022-12-13T03:43:00.544Z,-1.45
2022-12-13T03:45:28.994Z,-1.89
2022-12-13T03:47:57.357Z,-1.53
2022-12-13T03:50:27.507Z,-1.42
2022-12-13T03:53:00.237Z,-1.56
2022-12-13T03:55:29.463Z,-2.25
2022-12-13T03:57:59.156Z,-1.02
2022-12-13T04:00:30.469Z,-2.03
2022-12-13T04:02:58.923Z,-1.58
2022-12-13T04:05:27.407Z,-1.49
2022-12-13T04:08:00.907Z,-1.49
2022-12-13T04:10:30.097Z,-1.59
2022-12-13T04:13:17.044Z,-1.27
2022-12-13T04:15:49.255Z,-2.07
2022-12-13T04:18:18.871Z,-2.25
2022-12-13T04:20:47.665Z,-1.84
2022-12-13T04:23:16.253Z,-2.25
2022-12-13T04:25:45.830Z,-2.76
2022-12-13T04:28:22.008Z,-2.09
2022-12-13T04:30:52.969Z,-1.88
2022-12-13T04:33:22.878Z,-1.63
2022-12-13T04:35:51.648Z,-1.43
2022-12-13T04:38:20.774Z,-1.29
2022-12-13T04:40:50.752Z,-1.13
2022-12-13T04:43:19.107Z,-1.11
2022-12-13T04:45:47.644Z,-1.27
2022-12-13T04:48:30.505Z,-1.29
2022-12-13T04:51:01.369Z,-2.08
2022-12-13T04:53:30.987Z,-1.62
2022-12-13T04:55:59.948Z,-1.91
2022-12-13T04:58:29.053Z,-1.78
2022-12-13T05:00:57.998Z,-2.30
2022-12-13T05:03:28.283Z,-2.54
2022-12-13T05:05:57.246Z,-2.39
2022-12-13T05:08:26.141Z,-2.33
2022-12-13T05:10:54.959Z,-2.16
2022-12-13T05:13:23.320Z,-2.10
2022-12-13T05:15:58.546Z,-2.57
2022-12-13T05:18:27.020Z,-2.59
2022-12-13T05:20:55.533Z,-2.40
2022-12-13T05:23:25.447Z,-2.20
2022-12-13T05:25:53.890Z,-2.11
2022-12-13T05:28:27.821Z,-2.37
2022-12-13T05:30:58.776Z,-2.55
2022-12-13T05:33:28.779Z,-2.26
2022-12-13T05:36:00.631Z,-2.57
2022-12-13T05:38:31.425Z,-2.05
2022-12-13T05:40:59.960Z,-1.86
2022-12-13T05:43:41.944Z,-2.06
2022-12-13T05:46:15.239Z,-2.17
2022-12-13T05:48:43.769Z,-2.17
2022-12-13T05:51:12.498Z,-2.44
2022-12-13T05:53:45.245Z,-2.29
2022-12-13T05:56:22.475Z,-2.16
2022-12-13T05:58:53.540Z,-1.97
2022-12-13T06:01:23.937Z,-1.48
2022-12-13T06:03:52.566Z,-1.17
2022-12-13T06:06:21.620Z,-1.40
2022-12-13T06:08:51.259Z,-1.64
2022-12-13T06:11:21.594Z,-1.21
2022-12-13T06:14:01.379Z,-2.06
2022-12-13T06:16:30.110Z,-2.16
2022-12-13T06:19:04.282Z,-1.73
2022-12-13T06:21:45.518Z,-1.70
2022-12-13T06:24:16.241Z,-1.55
2022-12-13T06:26:45.187Z,-1.97
2022-12-13T06:29:22.516Z,-1.74
2022-12-13T06:32:00.865Z,-1.70
2022-12-13T06:34:35.839Z,-2.05
2022-12-13T06:37:07.386Z,-1.81
2022-12-13T06:39:35.885Z,-2.18
2022-12-13T06:42:06.710Z,-1.62
2022-12-13T06:44:35.669Z,-1.31
2022-12-13T06:47:11.339Z,-1.08
2022-12-13T06:49:43.966Z,-1.38
2022-12-13T06:52:13.758Z,-1.15
2022-12-13T06:54:42.736Z,-1.42
2022-12-13T06:57:12.450Z,-1.11
2022-12-13T06:59:41.473Z,-1.63
2022-12-13T07:02:15.494Z,-1.83
2022-12-13T07:04:54.993Z,-1.89
2022-12-13T07:07:23.595Z,-1.89
2022-12-13T07:09:52.943Z,-2.07
2022-12-13T07:12:22.127Z,-1.00
2022-12-13T07:14:50.711Z,-1.08
2022-12-13T07:17:32.816Z,-0.59
2022-12-13T07:20:08.655Z,-0.33
2022-12-13T07:22:46.807Z,-0.13
2022-12-13T07:25:27.717Z,-0.12
2022-12-13T07:28:02.480Z,0.15
2022-12-13T07:30:41.504Z,0.57
2022-12-13T07:33:10.379Z,0.75
2022-12-13T07:35:38.869Z,0.93
2022-12-13T07:38:07.834Z,1.09
2022-12-13T07:40:37.179Z,0.73
2022-12-13T07:43:06.042Z,1.20
2022-12-13T07:45:34.628Z,1.37
2022-12-13T07:48:06.861Z,1.63
2022-12-13T07:50:36.820Z,1.50
2022-12-13T07:53:09.070Z,1.73
2022-12-13T07:55:38.014Z,1.93
2022-12-13T07:58:13.996Z,1.66
2022-12-13T08:00:46.094Z,1.89
2022-12-13T08:03:25.317Z,2.04
2022-12-13T08:06:04.467Z,2.04
2022-12-13T08:08:33.376Z,1.77
2022-12-13T08:11:08.860Z,2.22
2022-12-13T08:13:37.272Z,2.21
2022-12-13T08:16:27.875Z,2.37
2022-12-13T08:19:01.781Z,2.50
2022-12-13T08:21:56.865Z,2.76
2022-12-13T08:24:27.849Z,3.32
2022-12-13T08:27:01.708Z,3.93
2022-12-13T08:29:34.501Z,4.76
2022-12-13T08:32:05.415Z,5.38
2022-12-13T08:34:34.546Z,6.15
2022-12-13T08:37:04.133Z,6.43
2022-12-13T08:39:35.550Z,7.34
2022-12-13T08:42:15.903Z,8.13
2022-12-13T08:44:47.154Z,9.10
2022-12-13T08:47:22.964Z,9.72
2022-12-13T08:50:02.251Z,10.62
2022-12-13T08:52:40.070Z,11.35
2022-12-13T08:55:10.912Z,12.83
2022-12-13T08:57:40.966Z,13.69
2022-12-13T09:00:14.381Z,14.39
2022-12-13T09:02:42.994Z,15.24
2022-12-13T09:05:11.708Z,15.72
2022-12-13T09:07:41.477Z,16.06
2022-12-13T09:10:26.930Z,16.47
2022-12-13T09:13:01.537Z,16.12
2022-12-13T09:15:33.797Z,15.61
2022-12-13T09:18:04.523Z,15.52
2022-12-13T09:20:41.170Z,15.50
2022-12-13T09:23:13.642Z,15.13
2022-12-13T09:26:05.447Z,14.09
2022-12-13T09:28:35.888Z,13.32
2022-12-13T09:31:14.071Z,11.20
2022-12-13T09:33:42.829Z,9.99
2022-12-13T09:36:12.932Z,8.09
2022-12-13T09:38:41.379Z,6.93
2022-12-13T09:41:19.448Z,5.95
2022-12-13T09:44:01.131Z,5.81
2022-12-13T09:46:34.276Z,5.45
2022-12-13T09:49:35.180Z,5.81
2022-12-13T09:52:11.557Z,5.54
2022-12-13T09:54:48.101Z,5.33
2022-12-13T09:57:32.401Z,4.18
2022-12-13T10:00:04.952Z,3.73
2022-12-13T10:02:55.432Z,4.15
2022-12-13T10:05:35.750Z,3.46
2022-12-13T10:08:09.482Z,3.61
2022-12-13T10:10:38.529Z,3.55
2022-12-13T10:13:15.423Z,2.78
2022-12-13T10:15:47.055Z,2.53
2022-12-13T10:18:17.683Z,2.13
2022-12-13T10:20:46.151Z,2.21
2022-12-13T10:23:38.488Z,2.36
2022-12-13T10:26:04.145Z,2.33
2022-12-13T10:28:33.427Z,2.65
2022-12-13T10:31:01.938Z,1.92
2022-12-13T10:33:32.654Z,1.89
2022-12-13T10:36:04.129Z,2.24
2022-12-13T10:38:35.892Z,2.25
2022-12-13T10:41:04.605Z,1.99
2022-12-13T10:43:33.822Z,1.45
2022-12-13T10:46:04.054Z,2.22
2022-12-13T10:48:49.482Z,1.98
2022-12-13T10:51:20.359Z,1.31
2022-12-13T10:53:50.497Z,2.04
2022-12-13T10:56:23.413Z,1.10
2022-12-13T10:59:13.349Z,1.92
2022-12-13T11:01:43.697Z,2.16
2022-12-13T11:04:27.962Z,1.46
2022-12-13T11:06:57.885Z,1.80
2022-12-13T11:09:30.424Z,0.97
2022-12-13T11:12:13.947Z,1.57
2022-12-13T11:14:55.767Z,2.32
2022-12-13T11:17:25.849Z,1.44
2022-12-13T11:19:56.359Z,1.46
2022-12-13T11:22:29.168Z,1.08
2022-12-13T11:25:24.423Z,1.33
2022-12-13T11:28:29.078Z,1.39
2022-12-13T11:31:06.387Z,1.29
2022-12-13T11:33:47.541Z,1.49
2022-12-13T11:36:28.731Z,2.07
2022-12-13T11:39:17.831Z,2.35
2022-12-13T11:41:55.601Z,1.26
2022-12-13T11:44:26.641Z,1.35
2022-12-13T11:46:56.813Z,1.22
2022-12-13T11:49:42.117Z,1.12
2022-12-13T11:52:16.047Z,1.02
2022-12-13T11:54:49.329Z,1.04
2022-12-13T11:57:30.473Z,0.84
2022-12-13T12:00:05.147Z,1.07
2022-12-13T12:02:49.288Z,1.45
2022-12-13T12:05:38.538Z,1.45
2022-12-13T12:08:33.496Z,1.70
2022-12-13T12:11:22.633Z,1.10
2022-12-13T12:13:58.095Z,2.15
2022-12-13T12:16:34.668Z,2.27
2022-12-13T12:19:03.115Z,2.29
2022-12-13T12:22:12.223Z,2.02
2022-12-13T12:24:40.877Z,1.34
2022-12-13T12:27:28.926Z,1.02
2022-12-13T12:30:07.826Z,1.40
2022-12-13T12:32:46.422Z,1.56
2022-12-13T12:35:38.148Z,1.73
2022-12-13T12:38:33.154Z,1.66
2022-12-13T12:41:16.465Z,1.75
2022-12-13T12:43:46.406Z,2.28
2022-12-13T12:46:20.806Z,1.35
2022-12-13T12:49:01.839Z,2.35
2022-12-13T12:51:37.718Z,2.68
2022-12-13T12:54:13.793Z,2.39
2022-12-13T12:57:15.953Z,2.64
2022-12-13T13:00:01.668Z,2.46
2022-12-13T13:03:15.792Z,3.00
2022-12-13T13:05:48.518Z,1.77
2022-12-13T13:08:28.602Z,2.21
2022-12-13T13:11:02.061Z,2.45
2022-12-13T13:13:47.018Z,3.00
2022-12-13T13:16:27.669Z,2.98
2022-12-13T13:18:56.874Z,2.73
2022-12-13T13:21:52.482Z,2.88
2022-12-13T13:24:27.770Z,2.24
2022-12-13T13:26:56.860Z,2.02
2022-12-13T13:29:27.528Z,2.72
2022-12-13T13:32:27.936Z,2.54
2022-12-13T13:35:34.668Z,2.21
2022-12-13T13:38:17.072Z,1.62
2022-12-13T13:40:45.536Z,2.31
2022-12-13T13:43:19.864Z,2.14
2022-12-13T13:46:10.947Z,1.97
2022-12-13T13:48:51.937Z,1.95
2022-12-13T13:52:08.679Z,2.20
2022-12-13T13:54:44.925Z,2.39
2022-12-13T13:58:07.724Z,2.64
2022-12-13T14:00:26.350Z,2.73
2022-12-13T14:03:34.957Z,2.78
2022-12-13T14:06:23.045Z,2.76
2022-12-13T14:09:19.436Z,2.68
2022-12-13T14:12:09.525Z,2.66
2022-12-13T14:15:16.386Z,2.63
2022-12-13T14:17:54.177Z,2.43
2022-12-13T14:20:44.596Z,2.21
2022-12-13T14:23:29.011Z,2.21
2022-12-13T14:26:15.794Z,1.83
2022-12-13T14:28:57.912Z,2.13
2022-12-13T14:31:43.110Z,2.23
2022-12-13T14:34:20.137Z,2.11
2022-12-13T14:36:58.525Z,2.25
2022-12-13T14:39:29.732Z,1.92
2022-12-13T14:41:59.297Z,1.94
2022-12-13T14:44:31.968Z,2.14
2022-12-13T14:47:02.594Z,2.15
2022-12-13T14:49:33.399Z,1.88
2022-12-13T14:52:29.253Z,1.87
2022-12-13T14:55:00.975Z,1.64
2022-12-13T14:57:31.682Z,1.61
2022-12-13T15:00:02.003Z,1.67
2022-12-13T15:02:33.784Z,1.38
2022-12-13T15:05:05.727Z,0.89
2022-12-13T15:07:41.737Z,1.20
2022-12-13T15:10:19.275Z,1.20
2022-12-13T15:12:47.640Z,1.21
2022-12-13T15:15:38.547Z,1.37
2022-12-13T15:18:08.105Z,1.01
2022-12-13T15:20:42.396Z,1.13
2022-12-13T15:23:26.656Z,1.04
2022-12-13T15:26:28.947Z,1.40
2022-12-13T15:28:59.939Z,1.56
2022-12-13T15:31:31.501Z,1.52
2022-12-13T15:34:28.746Z,1.60
2022-12-13T15:36:59.581Z,1.67
2022-12-13T15:39:31.406Z,1.77
2022-12-13T15:41:59.885Z,1.74
2022-12-13T15:44:41.622Z,1.38
2022-12-13T15:47:28.136Z,0.86
2022-12-13T15:50:02.714Z,1.29
2022-12-13T15:52:36.754Z,0.93
2022-12-13T15:55:11.105Z,1.20
2022-12-13T15:57:54.151Z,1.26
2022-12-13T16:00:33.434Z,1.30
2022-12-13T16:03:16.679Z,1.42
2022-12-13T16:05:50.406Z,1.30
2022-12-13T16:08:29.070Z,1.17
2022-12-13T16:10:57.752Z,1.07
2022-12-13T16:13:28.797Z,1.04
2022-12-13T16:15:59.918Z,0.90
2022-12-13T16:18:53.000Z,0.75
2022-12-13T16:21:22.048Z,0.49
2022-12-13T16:23:50.980Z,0.88
2022-12-13T16:26:29.016Z,0.84
2022-12-13T16:29:00.615Z,0.78
2022-12-13T16:31:36.247Z,0.47
2022-12-13T16:34:05.513Z,0.74
2022-12-13T16:36:33.951Z,0.93
2022-12-13T16:39:02.693Z,0.44
2022-12-13T16:41:31.717Z,0.69
2022-12-13T16:44:02.308Z,0.17
2022-12-13T16:47:13.374Z,0.58
2022-12-13T16:49:25.745Z,0.43
2022-12-13T16:51:54.568Z,0.71
2022-12-13T16:54:24.402Z,0.73
2022-12-13T16:56:54.373Z,0.43
2022-12-13T16:59:25.029Z,0.66
2022-12-13T17:01:53.713Z,0.68
2022-12-13T17:04:24.052Z,0.21
2022-12-13T17:06:54.887Z,0.14
2022-12-13T17:09:25.422Z,-0.14
2022-12-13T17:11:54.198Z,0.05
2022-12-13T17:14:22.939Z,0.30
2022-12-13T17:16:52.555Z,0.43
2022-12-13T17:19:21.118Z,0.37
2022-12-13T17:21:49.921Z,0.20
2022-12-13T17:24:20.335Z,0.53
2022-12-13T17:26:54.454Z,0.43
2022-12-13T17:29:26.106Z,0.60
2022-12-13T17:31:55.387Z,0.17
2022-12-13T17:34:24.769Z,-0.16
2022-12-13T17:36:54.571Z,0.34
2022-12-13T17:39:27.326Z,0.20
2022-12-13T17:41:57.561Z,-0.10
2022-12-13T17:44:27.328Z,0.23
2022-12-13T17:46:58.239Z,0.44
2022-12-13T17:49:27.799Z,0.21
2022-12-13T17:51:57.202Z,0.19
2022-12-13T17:54:26.601Z,0.26
2022-12-13T17:56:55.287Z,0.53
2022-12-13T17:59:24.221Z,0.42
2022-12-13T18:01:52.846Z,0.29
2022-12-13T18:04:21.857Z,0.46
2022-12-13T18:06:51.609Z,0.16
2022-12-13T18:09:21.767Z,0.30
2022-12-13T18:11:51.574Z,0.08
2022-12-13T18:14:24.098Z,-0.26
2022-12-13T18:16:56.611Z,-0.28
2022-12-13T18:19:35.052Z,0.07
2022-12-13T18:22:07.082Z,0.12
2022-12-13T18:24:41.570Z,0.21
2022-12-13T18:27:13.218Z,0.22
2022-12-13T18:29:55.027Z,0.04
2022-12-13T18:32:25.790Z,-0.26
2022-12-13T18:34:56.919Z,-0.19
2022-12-13T18:37:29.240Z,0.06
2022-12-13T18:39:59.990Z,-0.17
2022-12-13T18:42:33.468Z,-0.00
2022-12-13T18:45:07.605Z,-0.24
2022-12-13T18:47:42.096Z,-0.11
2022-12-13T18:50:15.872Z,-0.13
2022-12-13T18:52:47.495Z,-0.27
2022-12-13T18:55:16.013Z,-0.43
2022-12-13T18:57:44.520Z,-0.45
2022-12-13T19:00:14.023Z,-0.47
2022-12-13T19:02:42.734Z,-0.41
2022-12-13T19:05:11.408Z,-0.31
2022-12-13T19:07:43.672Z,-0.22
2022-12-13T19:10:16.317Z,-0.40
2022-12-13T19:12:49.641Z,-0.10
2022-12-13T19:15:22.815Z,-0.52
2022-12-13T19:17:54.269Z,-0.23
2022-12-13T19:20:27.277Z,-0.56
2022-12-13T19:22:57.199Z,-0.60
2022-12-13T19:25:26.191Z,-0.20
2022-12-13T19:27:57.293Z,-0.08
2022-12-13T19:30:26.548Z,0.06
2022-12-13T19:32:56.431Z,-0.68
2022-12-13T19:35:25.680Z,-0.82
2022-12-13T19:37:54.207Z,-0.31
2022-12-13T19:40:23.760Z,-0.39
2022-12-13T19:42:55.448Z,-0.19
2022-12-13T19:45:25.938Z,-0.25
2022-12-13T19:47:54.606Z,-0.13
2022-12-13T19:50:23.617Z,0.08
2022-12-13T19:52:52.650Z,0.20
2022-12-13T19:55:21.225Z,-0.19
2022-12-13T19:57:50.518Z,-0.24
2022-12-13T20:00:19.248Z,-0.19
2022-12-13T20:02:47.820Z,-0.83
2022-12-13T20:05:16.701Z,-0.31
2022-12-13T20:07:45.322Z,-0.13
2022-12-13T20:10:14.406Z,-0.23
2022-12-13T20:12:42.934Z,0.08
2022-12-13T20:15:11.901Z,-0.41
2022-12-13T20:17:40.531Z,-0.64
2022-12-13T20:20:09.529Z,-0.06
2022-12-13T20:22:38.770Z,-0.11
2022-12-13T20:25:07.936Z,0.15
2022-12-13T20:27:37.033Z,0.17
2022-12-13T20:30:06.787Z,0.21
2022-12-13T20:32:35.628Z,-0.04
2022-12-13T20:35:04.493Z,0.15
2022-12-13T20:37:34.568Z,0.20
2022-12-13T20:40:04.091Z,0.39
2022-12-13T20:42:33.855Z,-0.39
2022-12-13T20:45:03.272Z,-0.50
2022-12-13T20:47:36.377Z,-0.06
2022-12-13T20:50:08.136Z,-0.12
2022-12-13T20:52:36.896Z,0.04
2022-12-13T20:55:06.814Z,0.13
2022-12-13T20:57:35.241Z,0.28
2022-12-13T21:00:04.887Z,-0.06
2022-12-13T21:02:33.331Z,0.39
2022-12-13T21:05:01.726Z,0.22
2022-12-13T21:07:49.177Z,0.25
2022-12-13T21:10:17.692Z,0.15
2022-12-13T21:12:46.348Z,0.38
2022-12-13T21:15:14.954Z,0.18
2022-12-13T21:17:43.957Z,0.40
2022-12-13T21:20:12.506Z,0.26
2022-12-13T21:22:41.066Z,0.21
2022-12-13T21:25:09.613Z,0.09
2022-12-13T21:27:37.990Z,0.30
2022-12-13T21:30:08.075Z,-0.21
2022-12-13T21:32:36.549Z,0.09
2022-12-13T21:35:06.291Z,0.16
2022-12-13T21:37:34.710Z,0.29
2022-12-13T21:40:03.198Z,0.39
2022-12-13T21:42:31.642Z,0.38
2022-12-13T21:45:02.564Z,0.48
2022-12-13T21:47:31.004Z,0.01
2022-12-13T21:49:59.912Z,0.33
2022-12-13T21:52:29.226Z,0.49
2022-12-13T21:55:15.177Z,0.40
2022-12-13T21:58:07.898Z,0.46
2022-12-13T22:00:38.424Z,0.44
2022-12-13T22:03:06.921Z,0.02
2022-12-13T22:05:35.357Z,0.34
2022-12-13T22:08:04.405Z,0.49
2022-12-13T22:10:32.838Z,0.53
2022-12-13T22:13:01.264Z,0.23
2022-12-13T22:15:29.645Z,0.22
2022-12-13T22:17:59.290Z,0.36
2022-12-13T22:20:27.637Z,0.41
2022-12-13T22:22:57.095Z,0.28
2022-12-13T22:25:26.314Z,0.27
2022-12-13T22:27:54.663Z,0.36
2022-12-13T22:30:23.251Z,0.27
2022-12-13T22:32:52.667Z,0.41
2022-12-13T22:35:20.940Z,0.15
2022-12-13T22:37:50.329Z,0.40
2022-12-13T22:40:20.389Z,0.58
2022-12-13T22:42:49.106Z,0.66
2022-12-13T22:45:17.669Z,0.70
2022-12-13T22:47:46.560Z,0.51
2022-12-13T22:50:15.024Z,0.49
2022-12-13T22:52:43.517Z,0.48
2022-12-13T22:55:12.314Z,0.44
2022-12-13T22:57:40.688Z,0.33
2022-12-13T23:00:10.509Z,0.28
2022-12-13T23:02:40.175Z,0.38
2022-12-13T23:05:08.807Z,0.14
2022-12-13T23:07:37.567Z,0.05
2022-12-13T23:10:27.561Z,0.13
2022-12-13T23:13:04.798Z,0.26
2022-12-13T23:15:37.731Z,0.43
2022-12-13T23:18:06.399Z,0.23
2022-12-13T23:20:35.526Z,0.23
2022-12-13T23:23:04.078Z,0.49
2022-12-13T23:25:32.451Z,0.45
2022-12-13T23:28:01.708Z,0.50
2022-12-13T23:30:30.830Z,0.57
2022-12-13T23:32:59.300Z,0.70
2022-12-13T23:35:27.697Z,0.65
2022-12-13T23:37:56.100Z,0.60
2022-12-13T23:40:24.568Z,0.69
2022-12-13T23:42:53.044Z,0.61
2022-12-13T23:45:21.942Z,0.73
2022-12-13T23:47:50.411Z,0.73
2022-12-13T23:50:18.889Z,0.76
2022-12-13T23:52:47.915Z,0.79
2022-12-13T23:55:16.574Z,0.72
2022-12-13T23:57:45.118Z,0.74
